Time;durP1;ratioP1;P1;durP2;ratioP2;P2;SDS_P1;SDS_P2;PMS_P1;PMS_P2;Temp;Humidity;BMP_temperature;BMP_pressure;BME280_temperature;BME280_humidity;BME280_pressure;Samples;Min_cycle;Max_cycle;Signal;HPM_P1;HPM_P2
2023/04/15 00:01:22;;;;;;;12.95;4.45;;;;;;;5.25;99.48;100643.56;5016885;28;20022;-93
2023/04/15 00:04:17;;;;;;;10.67;4.47;;;;;;;5.23;99.14;100644.78;5028650;28;20086;-93
2023/04/15 00:06:52;;;;;;;10.27;4.10;;;;;;;5.08;100.00;100632.75;5007360;28;20048;-92
2023/04/15 00:09:26;;;;;;;13.85;4.82;;;;;;;5.07;100.00;100630.31;5014531;28;20049;-91
2023/04/15 00:12:11;;;;;;;9.57;4.60;;;;;;;5.13;100.00;100648.00;5033023;28;20066;-93
2023/04/15 00:14:36;;;;;;;11.18;5.22;;;;;;;5.03;100.00;100637.13;5034142;28;20017;-92
2023/04/15 00:17:17;;;;;;;10.00;4.73;;;;;;;4.89;100.00;100617.88;5033140;28;20037;-93
2023/04/15 00:19:52;;;;;;;10.63;4.43;;;;;;;5.05;100.00;100643.03;5031967;28;20044;-93
2023/04/15 00:22:17;;;;;;;10.75;4.63;;;;;;;4.81;100.00;100622.50;5003964;28;20030;-92
2023/04/15 00:24:55;;;;;;;8.60;4.53;;;;;;;4.74;100.00;100616.44;5013700;28;20496;-93
2023/04/15 00:27:27;;;;;;;10.48;4.75;;;;;;;4.67;100.00;100605.91;5000241;28;20111;-94
2023/04/15 00:29:52;;;;;;;9.15;4.85;;;;;;;4.66;100.00;100614.09;5049800;23;20054;-95
2023/04/15 00:32:19;;;;;;;9.40;4.60;;;;;;;4.58;100.00;100611.75;5004989;23;20050;-94
2023/04/15 00:34:53;;;;;;;9.57;5.55;;;;;;;4.50;100.00;100610.22;4970096;28;20117;-94
2023/04/15 00:37:25;;;;;;;12.35;4.93;;;;;;;4.46;100.00;100603.72;4975449;28;20046;-94
2023/04/15 00:39:54;;;;;;;9.85;4.82;;;;;;;4.47;100.00;100605.34;5013186;23;20038;-93
2023/04/15 00:42:20;;;;;;;8.73;5.20;;;;;;;4.45;100.00;100618.03;4956511;28;20066;-94
2023/04/15 00:44:54;;;;;;;10.68;5.30;;;;;;;4.48;100.00;100623.69;4975735;28;20023;-93
2023/04/15 00:47:20;;;;;;;11.90;5.70;;;;;;;4.39;100.00;100617.88;4974372;28;20089;-94
2023/04/15 00:49:46;;;;;;;13.33;5.03;;;;;;;4.40;100.00;100631.97;5157469;23;20729;-93
2023/04/15 00:52:14;;;;;;;12.03;5.00;;;;;;;4.38;100.00;100637.47;4989609;28;20129;-94
2023/04/15 00:54:50;;;;;;;10.83;4.60;;;;;;;4.32;100.00;100629.59;4993102;28;20400;-94
2023/04/15 00:57:48;;;;;;;11.35;4.85;;;;;;;4.20;100.00;100616.28;4967161;28;20085;-94
2023/04/15 01:00:13;;;;;;;10.00;4.72;;;;;;;4.26;100.00;100635.78;4974882;28;20427;-93
2023/04/15 01:02:44;;;;;;;9.85;4.57;;;;;;;4.19;100.00;100623.41;4985877;28;20029;-92
2023/04/15 01:05:44;;;;;;;12.40;4.77;;;;;;;4.32;100.00;100646.31;4995335;28;20023;-92
2023/04/15 01:08:19;;;;;;;9.73;4.38;;;;;;;4.06;100.00;100616.38;4984772;28;20062;-94
2023/04/15 01:10:56;;;;;;;12.68;4.90;;;;;;;4.17;100.00;100632.63;5004903;28;20012;-94
2023/04/15 01:13:59;;;;;;;9.27;4.38;;;;;;;4.23;100.00;100645.81;4977177;28;20051;-93
2023/04/15 01:16:26;;;;;;;10.00;4.97;;;;;;;4.02;100.00;100612.53;4995472;28;20062;-94
2023/04/15 01:19:19;;;;;;;7.88;4.40;;;;;;;4.18;100.00;100644.84;4992723;28;20573;-93
2023/04/15 01:22:13;;;;;;;12.02;4.68;;;;;;;4.00;100.00;100627.06;4973756;28;20030;-94
2023/04/15 01:25:28;;;;;;;11.02;5.07;;;;;;;4.03;100.00;100647.84;4949733;28;20537;-94
2023/04/15 01:28:18;;;;;;;11.20;4.88;;;;;;;3.81;100.00;100623.56;5030054;23;20070;-93
2023/04/15 01:30:49;;;;;;;6.93;4.33;;;;;;;3.64;100.00;100610.88;4973246;28;20031;-93
2023/04/15 01:42:57;;;;;;;12.50;5.40;;;;;;;3.56;100.00;100637.63;4998993;28;20081;-94
2023/04/15 01:55:33;;;;;;;8.68;4.88;;;;;;;3.39;100.00;100650.56;4995420;28;20141;-93
2023/04/15 02:06:35;;;;;;;13.15;5.78;;;;;;;3.08;100.00;100637.13;5782180;23;20050;-93
2023/04/15 02:39:44;;;;;;;12.15;6.80;;;;;;;2.92;100.00;100635.78;5300039;23;20167;-94
2023/04/15 02:46:13;;;;;;;11.98;6.32;;;;;;;3.09;100.00;100662.59;4948480;29;20047;-94
2023/04/15 03:00:41;;;;;;;13.50;6.20;;;;;;;2.77;100.00;100680.22;6164576;23;20028;-93
2023/04/15 03:03:23;;;;;;;13.50;6.80;;;;;;;2.50;100.00;100645.91;5002135;28;20314;-93
2023/04/15 03:05:52;;;;;;;12.32;6.15;;;;;;;2.48;100.00;100642.66;5024690;28;20025;-93
2023/04/15 03:09:14;;;;;;;10.80;6.60;;;;;;;2.42;100.00;100646.94;5000837;23;20054;-94
2023/04/15 03:11:49;;;;;;;10.27;6.60;;;;;;;2.53;100.00;100667.50;5001033;28;20030;-93
2023/04/15 03:14:53;;;;;;;13.05;6.78;;;;;;;2.35;100.00;100648.81;5011050;28;20027;-93
2023/04/15 03:21:28;;;;;;;10.40;6.47;;;;;;;2.32;100.00;100639.44;4962895;28;20056;-93
2023/04/15 03:30:16;;;;;;;10.93;6.10;;;;;;;2.41;100.00;100691.13;5635467;22;20069;-93
2023/04/15 03:43:44;;;;;;;9.63;6.25;;;;;;;2.28;100.00;100701.72;4924615;28;20046;-94
2023/04/15 04:04:45;;;;;;;;;;;;;;;;;;;;;
2023/04/15 04:13:10;;;;;;;12.32;7.93;;;;;;;1.69;100.00;100704.16;5059833;23;20100;-93
2023/04/15 04:23:57;;;;;;;15.57;7.93;;;;;;;1.89;100.00;100729.78;5050209;23;20054;-94
2023/04/15 04:29:10;;;;;;;12.57;8.13;;;;;;;1.91;100.00;100731.22;5043132;23;20049;-93
2023/04/15 06:12:46;;;;;;;14.18;8.75;;;;;;;3.54;100.00;100917.88;5833709;23;20065;-93
2023/04/15 06:37:17;;;;;;;19.98;10.98;;;;;;;4.65;100.00;100960.22;5977844;23;20017;-89
2023/04/15 06:45:58;;;;;;;16.83;9.47;;;;;;;4.96;100.00;100963.84;4996972;28;20056;-94
2023/04/15 07:00:24;;;;;;;17.33;10.00;;;;;;;5.58;100.00;100984.34;5550404;22;20025;-96
2023/04/15 07:03:47;;;;;;;;;;;;;;;;;;;;;
2023/04/15 07:06:18;;;;;;;13.20;8.77;;;;;;;5.78;100.00;100978.81;4945051;29;20047;-90
2023/04/15 07:09:47;;;;;;;15.85;9.85;;;;;;;6.09;100.00;101013.50;4951606;28;20811;-90
2023/04/15 07:42:58;;;;;;;31.27;9.00;;;;;;;7.38;100.00;101033.56;4952919;28;20152;-90
2023/04/15 07:48:45;;;;;;;11.73;7.65;;;;;;;7.69;100.00;101058.25;4967965;28;20189;-90
2023/04/15 08:16:26;;;;;;;7.70;6.05;;;;;;;8.87;99.01;101107.13;4973534;28;20073;-92
2023/04/15 08:23:07;;;;;;;8.20;5.53;;;;;;;9.03;96.04;101121.59;4914408;29;20068;-92
2023/04/15 08:48:53;;;;;;;6.50;4.03;;;;;;;10.38;82.26;101156.56;5015268;23;20061;-90
2023/04/15 08:51:19;;;;;;;5.10;3.73;;;;;;;10.45;81.53;101159.88;5011980;28;20312;-89
2023/04/15 08:53:46;;;;;;;7.30;4.22;;;;;;;10.54;82.55;101159.44;5011089;28;20098;-89
2023/04/15 08:56:15;;;;;;;5.57;4.00;;;;;;;10.63;83.28;101171.34;4995690;28;20494;-90
2023/04/15 08:58:52;;;;;;;7.85;3.70;;;;;;;10.70;77.37;101187.22;4991687;28;20034;-90
2023/04/15 09:01:50;;;;;;;4.93;3.78;;;;;;;10.59;77.50;101170.22;4993419;28;20048;-92
2023/04/15 09:04:17;;;;;;;7.95;4.30;;;;;;;10.71;76.67;101178.94;4910051;28;20043;-91
2023/04/15 09:06:42;;;;;;;10.48;4.60;;;;;;;10.73;77.67;101192.09;4979567;28;20038;-89
2023/04/15 09:09:07;;;;;;;5.50;4.10;;;;;;;10.95;76.67;101205.50;4999926;28;20390;-90
2023/04/15 09:11:33;;;;;;;6.57;3.90;;;;;;;11.03;74.32;101213.09;4995695;28;20019;-89
2023/04/15 09:13:58;;;;;;;381.10;33.72;;;;;;;11.02;72.57;101210.66;5005091;28;20030;-90
2023/04/15 09:16:24;;;;;;;1108.27;104.07;;;;;;;11.04;74.43;101209.34;4984858;28;20042;-87
2023/04/15 09:18:49;;;;;;;98.20;10.87;;;;;;;11.18;73.27;101219.66;4973478;28;20065;-91
2023/04/15 09:21:16;;;;;;;80.63;9.17;;;;;;;11.36;74.35;101222.00;4981007;28;20022;-88
2023/04/15 09:23:58;;;;;;;299.83;23.50;;;;;;;11.59;73.34;101228.13;4998868;28;20034;-90
2023/04/15 09:26:35;;;;;;;1076.00;102.53;;;;;;;11.66;71.92;101226.06;4984652;28;20034;-88
2023/04/15 09:29:05;;;;;;;76.88;9.15;;;;;;;11.76;70.62;101237.94;4975824;28;20034;-90
2023/04/15 09:31:31;;;;;;;11.75;4.80;;;;;;;11.79;69.12;101243.59;4998510;23;20046;-90
2023/04/15 09:33:57;;;;;;;222.40;21.38;;;;;;;11.74;70.20;101240.06;5011437;28;20041;-90
2023/04/15 09:36:23;;;;;;;101.93;10.60;;;;;;;11.71;68.25;101243.25;5009647;28;20030;-89
2023/04/15 09:38:57;;;;;;;560.45;49.45;;;;;;;11.73;68.87;101254.53;5005508;28;20033;-89
2023/04/15 09:41:24;;;;;;;1509.95;142.73;;;;;;;11.95;69.89;101251.78;5028214;28;20025;-90
2023/04/15 09:43:49;;;;;;;904.55;94.97;;;;;;;12.27;69.60;101251.78;5013820;28;20045;-88
2023/04/15 09:46:15;;;;;;;708.47;50.40;;;;;;;12.48;67.53;101251.91;5026154;28;20002;-88
2023/04/15 09:48:40;;;;;;;15.50;4.40;;;;;;;12.67;66.18;101243.41;4998217;23;20039;-88
2023/04/15 09:51:09;;;;;;;91.47;8.85;;;;;;;12.72;63.50;101251.50;4988664;28;20022;-90
2023/04/15 09:53:37;;;;;;;662.35;63.45;;;;;;;12.63;63.02;101237.75;5012626;28;20045;-89
2023/04/15 09:56:03;;;;;;;155.13;13.65;;;;;;;12.71;63.27;101255.25;4957512;28;20122;-88
2023/04/15 09:58:55;;;;;;;1999.90;401.80;;;;;;;12.90;65.40;101252.91;4953970;28;20096;-89
2023/04/15 10:01:32;;;;;;;46.17;7.70;;;;;;;13.07;65.88;101255.41;4957204;29;20467;-89
2023/04/15 10:04:02;;;;;;;46.97;5.72;;;;;;;13.00;60.52;101258.34;4944896;28;20403;-90
2023/04/15 10:06:28;;;;;;;40.42;6.07;;;;;;;12.97;60.56;101250.78;4957264;29;20105;-88
2023/04/15 10:09:05;;;;;;;205.65;16.70;;;;;;;13.22;63.14;101260.03;4956715;28;20708;-88
2023/04/15 10:11:44;;;;;;;53.83;6.10;;;;;;;13.34;62.02;101257.06;4960420;28;20034;-88
2023/04/15 10:14:18;;;;;;;1999.90;692.28;;;;;;;13.55;61.23;101257.97;4973648;28;20035;-88
2023/04/15 10:16:47;;;;;;;206.20;16.05;;;;;;;13.62;60.53;101261.19;4958589;28;20038;-89
2023/04/15 10:19:15;;;;;;;22.80;3.45;;;;;;;13.45;58.14;101263.31;4954263;29;20032;-89
2023/04/15 10:21:40;;;;;;;4.20;3.00;;;;;;;13.31;58.88;101268.41;4956167;28;20039;-90
2023/04/15 10:24:09;;;;;;;998.73;108.07;;;;;;;13.39;60.65;101265.16;4974024;28;20710;-90
2023/04/15 10:27:05;;;;;;;201.48;17.52;;;;;;;13.57;60.07;101249.63;4962893;28;20046;-88
2023/04/15 10:32:40;;;;;;;20.27;3.13;;;;;;;13.75;56.34;101267.16;4957654;28;20102;-92
2023/04/15 10:35:08;;;;;;;28.37;4.90;;;;;;;13.69;58.64;101284.38;4963764;28;20377;-88
2023/04/15 10:37:37;;;;;;;12.02;3.05;;;;;;;13.88;59.36;101287.34;4956870;28;20031;-88
2023/04/15 10:40:30;;;;;;;5.07;2.80;;;;;;;13.96;60.17;101294.91;4955023;28;20035;-87
2023/04/15 10:42:58;;;;;;;3.28;2.78;;;;;;;13.85;58.14;101283.31;4957412;28;20110;-87
2023/04/15 10:45:44;;;;;;;5.18;2.83;;;;;;;13.91;59.38;101284.09;4956193;28;20045;-87
2023/04/15 10:48:09;;;;;;;3.67;2.30;;;;;;;13.70;55.81;101275.22;4966679;28;20038;-87
2023/04/15 10:50:38;;;;;;;5.87;2.50;;;;;;;13.71;57.23;101298.38;4973558;28;20035;-88
2023/04/15 10:53:04;;;;;;;33.00;3.22;;;;;;;13.61;57.09;101289.19;4973696;28;20034;-89
2023/04/15 10:55:34;;;;;;;3.80;2.07;;;;;;;13.62;57.52;101293.50;4973005;28;20070;-90
2023/04/15 10:58:01;;;;;;;10.07;2.50;;;;;;;13.76;56.53;101293.00;4957837;28;20497;-90
2023/04/15 11:00:31;;;;;;;125.75;12.38;;;;;;;14.03;55.90;101300.00;4974269;28;20417;-92
2023/04/15 11:02:59;;;;;;;103.63;9.95;;;;;;;14.05;55.24;101297.84;4974235;28;20066;-92
2023/04/15 11:05:50;;;;;;;8.70;2.08;;;;;;;14.00;53.72;101301.38;4974862;28;20035;-92
2023/04/15 11:08:16;;;;;;;12.10;2.55;;;;;;;13.73;52.60;101297.03;4974371;28;20050;-89
2023/04/15 11:10:41;;;;;;;3.77;1.90;;;;;;;13.65;53.49;101302.13;4973754;28;20093;-92
2023/04/15 11:13:09;;;;;;;76.82;7.55;;;;;;;13.93;56.03;101308.91;4974267;28;20043;-89
2023/04/15 11:15:41;;;;;;;127.30;11.63;;;;;;;14.20;55.63;101300.53;4969631;28;20043;-89
2023/04/15 11:18:10;;;;;;;10.52;2.72;;;;;;;14.38;54.16;101312.66;4973839;28;20125;-89
2023/04/15 11:20:37;;;;;;;5.00;2.67;;;;;;;14.19;53.50;101319.69;4974701;28;20123;-90
2023/04/15 11:23:03;;;;;;;1069.68;112.40;;;;;;;14.09;54.44;101317.81;4973683;28;20089;-92
2023/04/15 11:25:31;;;;;;;311.73;26.38;;;;;;;14.14;55.43;101309.72;4973873;28;20026;-88
2023/04/15 11:27:58;;;;;;;22.98;4.10;;;;;;;14.39;55.38;101314.28;4973209;28;20039;-92
2023/04/15 11:30:27;;;;;;;13.30;3.92;;;;;;;14.58;53.69;101310.19;4973987;28;20037;-92
2023/04/15 11:32:57;;;;;;;3.97;2.80;;;;;;;14.96;54.07;101318.75;4971262;28;20085;-88
2023/04/15 11:35:23;;;;;;;14.90;3.45;;;;;;;15.15;53.85;101310.88;4971604;28;20037;-88
2023/04/15 11:37:49;;;;;;;2.97;2.50;;;;;;;15.02;52.88;101323.06;4972415;28;20034;-89
2023/04/15 11:40:16;;;;;;;2.97;2.67;;;;;;;14.95;53.53;101323.38;4971878;28;20023;-88
2023/04/15 11:42:42;;;;;;;6.20;2.70;;;;;;;14.97;53.66;101323.88;4972037;28;20027;-89
2023/04/15 11:47:42;;;;;;;2.67;1.90;;;;;;;14.76;52.05;101316.94;5423069;22;20050;-92
2023/04/15 11:50:19;;;;;;;4.77;1.80;;;;;;;14.67;52.82;101317.47;4957286;28;20035;-92
2023/04/15 11:53:02;;;;;;;5.17;1.80;;;;;;;14.85;52.91;101331.47;4974181;28;20289;-90
2023/04/15 11:55:27;;;;;;;4.82;1.73;;;;;;;14.97;52.42;101340.06;4966500;28;20041;-87
2023/04/15 11:58:14;;;;;;;103.53;10.20;;;;;;;15.14;52.85;101336.25;4974643;28;20026;-90
2023/04/15 12:00:40;;;;;;;186.18;16.67;;;;;;;15.29;52.69;101346.16;4956622;28;20018;-92
2023/04/15 12:03:18;;;;;;;55.60;4.53;;;;;;;15.37;51.79;101350.16;4976048;28;20034;-89
2023/04/15 12:06:06;;;;;;;22.40;2.95;;;;;;;15.12;51.83;101347.31;4974994;28;20043;-90
2023/04/15 12:08:50;;;;;;;3.30;2.13;;;;;;;15.42;53.11;101345.56;4978938;28;20031;-91
2023/04/15 12:11:39;;;;;;;6.03;2.10;;;;;;;15.54;51.43;101347.91;4973899;28;20282;-90
2023/04/15 12:22:25;;;;;;;24.42;3.40;;;;;;;15.06;51.02;101369.19;6140996;23;20020;31
2023/04/15 12:24:56;;;;;;;15.93;2.72;;;;;;;14.94;52.67;101373.00;4972727;28;20407;-87
2023/04/15 12:27:25;;;;;;;1134.57;120.95;;;;;;;15.10;54.19;101373.75;4972812;28;20023;-88
2023/04/15 12:30:03;;;;;;;33.60;5.93;;;;;;;15.07;53.48;101373.50;4962078;28;20117;-88
2023/04/15 12:32:28;;;;;;;772.17;65.55;;;;;;;15.45;53.55;101382.00;4973027;28;20119;-92
2023/04/15 12:34:54;;;;;;;30.23;4.40;;;;;;;15.84;52.16;101372.31;4970649;28;20138;-89
2023/04/15 12:37:19;;;;;;;5.17;2.37;;;;;;;16.07;50.93;101392.47;4939217;28;20030;-89
2023/04/15 12:39:47;;;;;;;4.30;2.58;;;;;;;15.82;51.22;101396.13;4970899;28;20035;-90
2023/04/15 12:42:14;;;;;;;4.03;2.63;;;;;;;15.49;51.80;101403.84;4971572;28;20027;-88
2023/04/15 12:44:40;;;;;;;22.23;4.60;;;;;;;15.58;53.56;101394.09;4971548;28;20298;-91
2023/04/15 12:47:06;;;;;;;29.88;4.05;;;;;;;15.62;52.16;101414.03;4973584;28;20162;-90
2023/04/15 12:49:32;;;;;;;25.00;4.32;;;;;;;15.74;51.55;101406.44;4973831;28;20030;-88
2023/04/15 12:51:59;;;;;;;17.50;3.20;;;;;;;15.58;50.42;101405.69;4970125;28;20061;-91
2023/04/15 12:54:27;;;;;;;23.58;4.22;;;;;;;15.63;51.09;101404.84;4970037;28;20038;-89
2023/04/15 12:56:53;;;;;;;5.20;2.67;;;;;;;15.70;51.99;101415.38;4971967;28;20027;-88
2023/04/15 12:59:19;;;;;;;10.20;2.75;;;;;;;15.56;51.31;101415.19;4970175;28;20118;-87
2023/04/15 13:01:46;;;;;;;31.80;3.50;;;;;;;15.38;51.37;101419.28;4969694;28;20106;-87
2023/04/15 13:04:11;;;;;;;6.07;2.57;;;;;;;15.12;51.84;101416.69;4971716;28;20042;-87
2023/04/15 13:06:37;;;;;;;5.22;2.50;;;;;;;15.26;52.04;101417.72;4970937;28;20031;-87
2023/04/15 13:09:03;;;;;;;2.93;2.43;;;;;;;15.36;51.60;101416.88;4970946;28;20150;-87
2023/04/15 13:11:32;;;;;;;3.15;2.03;;;;;;;15.34;51.61;101424.44;4973649;28;20070;-87
2023/04/15 13:13:58;;;;;;;4.10;2.00;;;;;;;15.29;51.65;101429.84;4971971;28;20487;-87
2023/04/15 13:16:24;;;;;;;4.28;1.95;;;;;;;15.31;51.79;101421.50;4972528;28;20046;-87
2023/04/15 13:18:49;;;;;;;2.27;1.80;;;;;;;15.41;52.53;101424.97;4971639;28;20035;-87
2023/04/15 13:21:15;;;;;;;4.73;2.10;;;;;;;15.32;51.89;101434.69;4954565;28;20109;-87
2023/04/15 13:23:41;;;;;;;4.37;1.90;;;;;;;15.08;52.61;101437.19;4970634;28;20353;-87
2023/04/15 13:26:07;;;;;;;2.42;1.90;;;;;;;15.35;52.29;101433.34;4970498;28;20039;-87
2023/04/15 13:28:42;;;;;;;2.63;1.80;;;;;;;15.28;50.94;101429.06;4971206;28;20023;-94
2023/04/15 13:31:07;;;;;;;4.20;1.90;;;;;;;15.10;51.05;101432.34;4976326;28;20023;-91
2023/04/15 13:33:33;;;;;;;6.40;1.73;;;;;;;14.93;51.04;101429.94;4971238;28;20118;-94
2023/04/15 13:51:47;;;;;;;;;;;;;;;;;;;;;
2023/04/15 13:54:53;;;;;;;2.40;1.90;;;;;;;15.96;51.12;101459.31;4998946;28;20038;-94
2023/04/15 13:57:19;;;;;;;3.25;2.10;;;;;;;15.81;50.61;101468.28;4998766;28;20041;-89
2023/04/15 14:00:03;;;;;;;4.43;1.97;;;;;;;15.62;52.36;101443.75;5002572;28;20038;-93
2023/04/15 14:02:28;;;;;;;1999.90;383.85;;;;;;;15.32;53.48;101461.69;5019031;28;20022;-95
2023/04/15 14:08:25;;;;;;;19.38;2.03;;;;;;;14.50;53.44;101476.88;5023683;28;20040;-95
2023/04/15 14:10:50;;;;;;;665.40;69.82;;;;;;;14.32;54.21;101496.25;5009462;28;20029;-96
2023/04/15 14:13:26;;;;;;;;;;;;;;;;;;;;;
2023/04/15 14:15:51;;;;;;;27.37;2.50;;;;;;;13.84;57.34;101501.78;5016535;28;20218;-94
2023/04/15 14:18:17;;;;;;;131.50;10.30;;;;;;;13.85;56.60;101511.47;4997644;28;20899;-87
2023/04/15 14:20:42;;;;;;;442.27;37.03;;;;;;;13.82;56.08;101498.53;4995764;28;20030;-88
2023/04/15 14:23:11;;;;;;;104.53;7.87;;;;;;;14.09;55.36;101509.13;4996970;28;20097;-88
2023/04/15 14:25:38;;;;;;;4.78;1.60;;;;;;;14.15;55.13;101507.25;5012825;28;20036;-88
2023/04/15 14:28:03;;;;;;;27.20;2.97;;;;;;;14.72;55.44;101505.47;5005622;28;20033;-86
2023/04/15 14:30:29;;;;;;;678.43;92.50;;;;;;;15.22;53.20;101503.03;4984627;28;20125;-89
2023/04/15 14:32:54;;;;;;;71.07;5.43;;;;;;;15.43;52.26;101509.19;4993579;28;20056;-86
2023/04/15 14:35:19;;;;;;;6.57;0.93;;;;;;;15.32;51.79;101513.00;4995841;28;20026;-86
2023/04/15 14:37:45;;;;;;;1249.67;126.07;;;;;;;15.28;52.16;101528.94;4997498;28;20026;-90
2023/04/15 14:40:10;;;;;;;41.33;5.30;;;;;;;14.83;53.64;101530.56;5009240;28;20023;-87
2023/04/15 14:42:35;;;;;;;477.10;40.70;;;;;;;14.61;54.21;101536.19;5003708;28;20026;-87
2023/04/15 14:45:01;;;;;;;1999.90;249.60;;;;;;;14.33;55.88;101530.22;5011198;28;20065;-87
2023/04/15 14:47:26;;;;;;;42.70;3.30;;;;;;;14.28;55.64;101541.00;5012505;28;20319;-88
2023/04/15 14:49:51;;;;;;;530.93;48.83;;;;;;;14.24;53.86;101555.00;4994159;28;20646;-88
2023/04/15 14:52:17;;;;;;;107.33;8.20;;;;;;;14.15;55.22;101548.47;4995554;28;20065;-86
2023/04/15 14:54:42;;;;;;;574.33;45.83;;;;;;;14.15;56.03;101563.84;5000733;28;20027;-88
2023/04/15 14:57:07;;;;;;;385.60;28.83;;;;;;;14.41;55.50;101553.16;5007793;28;20037;-91
2023/04/15 14:59:33;;;;;;;1104.35;105.65;;;;;;;14.43;54.73;101556.38;5011301;28;20060;-87
2023/04/15 15:01:58;;;;;;;6.27;1.37;;;;;;;14.11;56.21;101554.66;5001185;28;20130;-87
2023/04/15 15:04:23;;;;;;;1393.73;170.43;;;;;;;13.95;57.23;101557.28;4999863;28;20053;-87
2023/04/15 15:06:49;;;;;;;5.10;1.57;;;;;;;14.22;56.65;101561.72;4998397;28;20054;-88
2023/04/15 15:09:14;;;;;;;1999.90;276.63;;;;;;;14.63;54.55;101574.50;5018488;28;20026;-88
2023/04/15 15:11:40;;;;;;;539.47;40.73;;;;;;;14.68;54.58;101564.56;5021695;28;20017;-88
2023/04/15 15:14:05;;;;;;;9.53;1.43;;;;;;;14.40;53.96;101579.28;5014776;28;20042;-91
2023/04/15 15:16:30;;;;;;;1086.83;100.90;;;;;;;14.02;56.32;101571.34;5000251;28;20037;-87
2023/04/15 15:18:56;;;;;;;32.23;3.33;;;;;;;13.88;57.15;101562.94;5010124;28;20085;-88
2023/04/15 15:21:21;;;;;;;554.83;48.37;;;;;;;13.82;57.66;101573.94;5010835;28;20355;-89
2023/04/15 15:23:47;;;;;;;45.63;3.50;;;;;;;13.60;59.11;101577.59;4977752;28;20549;-89
2023/04/15 15:26:12;;;;;;;787.53;71.43;;;;;;;13.56;60.36;101589.94;4994841;28;20046;-89
2023/04/15 15:28:38;;;;;;;361.97;23.80;;;;;;;13.51;60.07;101584.53;4998810;28;20061;-87
2023/04/15 15:31:04;;;;;;;17.35;1.48;;;;;;;13.22;59.91;101587.50;4992937;28;20034;-90
2023/04/15 15:33:30;;;;;;;9.77;1.00;;;;;;;12.93;61.40;101604.75;4993362;28;20026;-89
2023/04/15 15:35:57;;;;;;;5.03;1.10;;;;;;;12.75;63.28;101592.50;5011544;28;20034;-86
2023/04/15 15:38:22;;;;;;;235.27;21.30;;;;;;;12.71;63.86;101596.75;5007500;28;20568;-88
2023/04/15 15:40:47;;;;;;;12.63;1.63;;;;;;;12.68;64.01;101598.06;4996559;28;20030;-87
2023/04/15 15:43:13;;;;;;;180.73;13.00;;;;;;;12.83;63.74;101607.34;4996289;28;20526;-87
2023/04/15 15:45:39;;;;;;;209.90;14.60;;;;;;;12.83;62.89;101605.47;4997989;28;20042;-90
2023/04/15 15:48:05;;;;;;;22.23;2.25;;;;;;;12.79;64.07;101617.78;4996861;28;20030;-88
2023/04/15 15:50:30;;;;;;;3.65;1.10;;;;;;;12.80;65.08;101613.22;4997248;28;20032;-88
2023/04/15 15:52:57;;;;;;;1999.90;224.53;;;;;;;12.80;64.19;101632.84;4991786;28;20104;-89
2023/04/15 15:57:58;;;;;;;7.80;1.30;;;;;;;12.81;65.95;101626.41;5110697;23;20061;-89
2023/04/15 16:00:23;;;;;;;1999.90;334.70;;;;;;;12.79;66.29;101623.16;5024812;28;20038;-94
2023/04/15 16:02:48;;;;;;;168.63;9.77;;;;;;;12.75;66.80;101642.75;5013538;28;20037;-88
2023/04/15 16:05:14;;;;;;;17.17;1.40;;;;;;;12.44;67.15;101645.09;4985167;28;20054;-92
2023/04/15 16:07:41;;;;;;;26.25;1.95;;;;;;;12.26;68.82;101650.50;5014220;28;20062;-88
2023/04/15 16:10:07;;;;;;;58.15;6.05;;;;;;;12.32;69.07;101650.59;4990133;28;20064;-89
2023/04/15 16:12:33;;;;;;;1631.22;227.65;;;;;;;12.38;68.06;101655.78;4997198;28;20023;-91
2023/04/15 16:14:58;;;;;;;11.67;1.47;;;;;;;12.20;68.10;101664.97;4990481;28;20019;-93
2023/04/15 16:17:23;;;;;;;3.17;1.10;;;;;;;12.03;68.46;101670.34;4984895;28;20023;-93
2023/04/15 16:19:48;;;;;;;3.53;1.10;;;;;;;11.81;69.02;101671.06;4981560;28;20305;-86
2023/04/15 16:22:14;;;;;;;5.83;1.37;;;;;;;11.62;69.88;101670.53;4993102;28;20014;-89
2023/04/15 16:24:39;;;;;;;3.90;0.90;;;;;;;11.51;70.27;101674.09;4987406;28;20072;-90
2023/04/15 16:27:06;;;;;;;4.87;0.90;;;;;;;11.48;70.90;101672.72;4996515;28;20034;-93
2023/04/15 16:29:33;;;;;;;3.72;1.00;;;;;;;11.39;71.22;101676.03;4992815;28;20109;-93
2023/04/15 16:31:58;;;;;;;4.15;1.25;;;;;;;11.36;70.10;101680.03;4996828;28;20074;-94
2023/04/15 16:34:26;;;;;;;3.57;1.00;;;;;;;11.24;71.60;101684.63;5027313;23;20042;-94
2023/04/15 16:37:07;;;;;;;4.80;1.00;;;;;;;11.19;72.14;101690.72;4959636;28;20034;-93
2023/04/15 16:39:36;;;;;;;2.60;1.00;;;;;;;11.08;73.74;101694.28;4974620;28;20398;-90
2023/04/15 16:42:02;;;;;;;2.45;0.85;;;;;;;11.03;74.30;101719.94;4970420;28;20470;-88
2023/04/15 16:44:27;;;;;;;3.05;0.90;;;;;;;10.93;73.53;101711.72;4971207;28;20030;-89
2023/04/15 16:46:53;;;;;;;4.17;1.07;;;;;;;10.71;73.29;101720.38;4971360;28;20034;-88
2023/04/15 16:49:18;;;;;;;3.60;1.03;;;;;;;10.65;74.91;101718.66;4992325;28;20030;-89
2023/04/15 16:51:44;;;;;;;5.00;0.80;;;;;;;10.63;74.61;101710.03;4995817;28;20293;-91
2023/04/15 16:54:09;;;;;;;6.27;1.07;;;;;;;10.63;75.05;101725.31;4993917;28;20124;-90
2023/04/15 16:56:35;;;;;;;4.00;0.93;;;;;;;10.49;75.55;101728.25;4977325;28;20026;-91
2023/04/15 16:59:00;;;;;;;5.30;0.88;;;;;;;10.28;76.49;101725.09;4993705;28;20060;-89
2023/04/15 17:01:26;;;;;;;3.50;1.20;;;;;;;10.26;76.76;101735.22;4996701;28;20033;-89
2023/04/15 17:03:51;;;;;;;3.63;0.90;;;;;;;10.21;77.03;101726.25;4996429;28;20030;-89
2023/04/15 17:06:16;;;;;;;3.85;0.85;;;;;;;10.07;77.56;101737.16;5000891;28;20022;-91
2023/04/15 17:08:45;;;;;;;8.60;1.90;;;;;;;10.02;78.39;101742.44;5005988;28;20556;-92
2023/04/15 17:11:11;;;;;;;3.40;0.80;;;;;;;9.92;79.15;101732.28;5007621;28;20026;-92
2023/04/15 17:13:37;;;;;;;3.63;1.00;;;;;;;9.82;80.91;101734.69;5006895;28;20039;-91
2023/04/15 17:16:03;;;;;;;5.00;1.00;;;;;;;9.75;82.25;101742.84;5010420;28;20033;-95
2023/04/15 17:18:32;;;;;;;3.53;0.80;;;;;;;9.74;82.54;101749.22;5004383;28;20030;-93
2023/04/15 17:21:22;;;;;;;6.25;1.00;;;;;;;9.66;82.69;101746.91;4992653;28;20047;-93
2023/04/15 17:24:12;;;;;;;6.22;1.27;;;;;;;9.67;82.88;101751.22;5170528;23;20053;-94
2023/04/15 17:26:45;;;;;;;5.47;1.30;;;;;;;9.40;84.84;101732.84;5016366;28;20037;-93
2023/04/15 17:29:13;;;;;;;5.90;1.00;;;;;;;9.37;86.18;101744.84;5016232;28;20033;-94
2023/04/15 17:31:41;;;;;;;5.70;1.33;;;;;;;9.36;86.06;101747.72;5038047;28;20034;-94
2023/04/15 17:34:13;;;;;;;21.80;1.40;;;;;;;9.29;86.65;101766.53;5005164;28;20029;-94
2023/04/15 17:36:50;;;;;;;4.60;1.15;;;;;;;9.31;86.62;101767.13;4994718;28;20026;-93
2023/04/15 17:39:25;;;;;;;12.73;1.23;;;;;;;9.22;86.90;101758.59;4994869;28;20041;-92
2023/04/15 17:41:59;;;;;;;6.50;1.10;;;;;;;9.15;87.31;101763.22;4995044;28;20132;-93
2023/04/15 17:44:24;;;;;;;5.33;1.40;;;;;;;9.15;87.82;101781.13;4998810;28;20285;-92
2023/04/15 17:47:01;;;;;;;4.47;0.90;;;;;;;9.01;88.24;101753.72;4994129;28;20401;-91
2023/04/15 17:49:37;;;;;;;6.70;1.10;;;;;;;8.89;89.45;101751.81;4992306;28;20018;-92
2023/04/15 17:52:34;;;;;;;6.27;1.10;;;;;;;9.06;89.50;101788.63;4993644;28;20332;-91
2023/04/15 17:55:08;;;;;;;2.53;0.90;;;;;;;8.96;88.27;101786.47;4994119;28;20102;-91
2023/04/15 17:57:44;;;;;;;4.25;1.15;;;;;;;8.84;87.78;101770.38;5008899;28;20014;-89
2023/04/15 18:00:38;;;;;;;4.60;0.90;;;;;;;8.83;88.29;101790.13;5012238;28;20038;-89
2023/04/15 18:03:04;;;;;;;14.93;1.27;;;;;;;8.76;88.67;101787.50;5004728;28;20061;-90
2023/04/15 18:05:32;;;;;;;4.00;0.70;;;;;;;8.70;89.43;101776.91;5011684;28;20090;-88
2023/04/15 18:08:01;;;;;;;5.95;0.90;;;;;;;8.76;90.45;101794.72;5011784;28;20061;-89
2023/04/15 18:10:26;;;;;;;5.35;1.20;;;;;;;8.76;90.69;101794.72;4997072;28;20056;-90
2023/04/15 18:12:52;;;;;;;3.63;1.10;;;;;;;8.63;90.72;101769.75;4998785;28;20044;-90
2023/04/15 18:15:29;;;;;;;6.60;1.27;;;;;;;8.68;91.57;101787.00;4997049;28;20058;-91